Terminal Aerodrome Forecast
Issued by NWS

Home | Current Version | Previous Version | Text Only | Print | Product List | Glossary On
Versions: 1 2 3 4 5 6 7 8 9 10 11 12
000
FTAK31 PAJN 201447 AAA
TAFAPG
TAF AMD
PAPG 201447Z 2015/2112 24003KT P6SM SCT150
      TEMPO 2015/2018 1 1/2SM BR
     FM201800 VRB04KT P6SM SKC
     FM210000 24003KT P6SM BKN050=

USA.gov is the U.S. government's official web portal to all federal, state and local government web resources and services.